createdAt,value
2023-01-06T00:00:06.395Z,0.68
2023-01-06T00:02:32.593Z,0.80
2023-01-06T00:04:58.816Z,0.63
2023-01-06T00:07:24.924Z,0.80
2023-01-06T00:09:51.071Z,1.00
2023-01-06T00:12:17.192Z,0.77
2023-01-06T00:14:43.347Z,1.00
2023-01-06T00:17:09.490Z,1.00
2023-01-06T00:19:35.634Z,1.00
2023-01-06T00:22:01.749Z,1.10
2023-01-06T00:24:27.878Z,1.17
2023-01-06T00:26:53.998Z,1.15
2023-01-06T00:29:20.121Z,0.90
2023-01-06T00:31:46.296Z,1.00
2023-01-06T00:34:12.447Z,0.80
2023-01-06T00:36:38.588Z,1.30
2023-01-06T00:39:04.726Z,1.48
2023-01-06T00:41:30.875Z,1.30
2023-01-06T00:43:57.006Z,1.58
2023-01-06T00:46:23.165Z,1.13
2023-01-06T00:49:03.956Z,1.10
2023-01-06T00:51:30.967Z,0.90
2023-01-06T00:53:57.108Z,0.95
2023-01-06T00:56:23.221Z,0.70
2023-01-06T00:58:49.336Z,0.75
2023-01-06T01:01:15.599Z,1.15
2023-01-06T01:03:41.758Z,0.68
2023-01-06T01:06:07.877Z,0.80
2023-01-06T01:08:34.108Z,0.70
2023-01-06T01:11:00.513Z,0.55
2023-01-06T01:13:27.041Z,0.45
2023-01-06T01:15:53.239Z,0.77
2023-01-06T01:18:19.380Z,0.63
2023-01-06T01:20:45.519Z,0.70
2023-01-06T01:23:11.630Z,0.88
2023-01-06T01:25:37.764Z,0.57
2023-01-06T01:28:03.881Z,0.60
2023-01-06T01:30:30.014Z,0.50
2023-01-06T01:32:56.151Z,0.60
2023-01-06T01:35:22.272Z,0.73
2023-01-06T01:37:48.387Z,0.60
2023-01-06T01:40:14.516Z,0.40
2023-01-06T01:42:40.705Z,0.50
2023-01-06T01:45:06.824Z,0.50
2023-01-06T01:47:32.936Z,0.40
2023-01-06T01:49:59.076Z,0.50
2023-01-06T01:52:25.192Z,0.57
2023-01-06T01:54:51.328Z,0.50
2023-01-06T01:57:17.467Z,0.60
2023-01-06T01:59:43.669Z,0.60
2023-01-06T02:02:09.872Z,0.70
2023-01-06T02:04:36.128Z,0.65
2023-01-06T02:07:02.251Z,0.73
2023-01-06T02:09:28.383Z,0.65
2023-01-06T02:11:54.509Z,0.70
2023-01-06T02:14:20.613Z,0.47
2023-01-06T02:16:46.774Z,0.60
2023-01-06T02:19:12.900Z,0.65
2023-01-06T02:21:39.028Z,0.60
2023-01-06T02:24:05.136Z,0.70
2023-01-06T02:26:31.258Z,0.60
2023-01-06T02:28:57.433Z,0.50
2023-01-06T02:31:23.611Z,0.80
2023-01-06T02:33:49.758Z,0.82
2023-01-06T02:36:15.899Z,0.50
2023-01-06T02:38:42.029Z,0.60
2023-01-06T02:41:08.144Z,0.73
2023-01-06T02:43:34.281Z,0.50
2023-01-06T02:46:00.391Z,0.60
2023-01-06T02:48:26.567Z,0.60
2023-01-06T02:50:52.696Z,0.60
2023-01-06T02:53:18.838Z,0.65
2023-01-06T02:55:44.960Z,0.80
2023-01-06T02:58:11.071Z,0.70
2023-01-06T03:00:37.213Z,0.63
2023-01-06T03:03:03.325Z,0.88
2023-01-06T03:05:29.521Z,1.10
2023-01-06T03:07:55.633Z,0.50
2023-01-06T03:10:21.762Z,0.60
2023-01-06T03:12:47.910Z,0.63
2023-01-06T03:15:14.029Z,0.70
2023-01-06T03:17:40.141Z,0.52
2023-01-06T03:20:06.280Z,0.47
2023-01-06T03:22:32.387Z,0.80
2023-01-06T03:24:58.555Z,0.98
2023-01-06T03:27:24.688Z,0.82
2023-01-06T03:29:50.832Z,0.80
2023-01-06T03:32:16.971Z,0.63
2023-01-06T03:34:43.127Z,0.90
2023-01-06T03:37:09.234Z,0.77
2023-01-06T03:39:35.356Z,0.70
2023-01-06T03:42:01.504Z,0.73
2023-01-06T03:44:27.615Z,0.85
2023-01-06T03:46:53.792Z,0.77
2023-01-06T03:49:19.937Z,0.70
2023-01-06T03:51:46.084Z,0.70
2023-01-06T03:54:12.199Z,0.80
2023-01-06T03:56:38.325Z,0.75
2023-01-06T03:59:04.437Z,0.70
2023-01-06T04:01:30.639Z,0.80
2023-01-06T04:03:56.846Z,0.80
2023-01-06T04:06:23.017Z,0.60
2023-01-06T04:08:49.132Z,0.60
2023-01-06T04:11:15.265Z,0.77
2023-01-06T04:13:41.521Z,0.75
2023-01-06T04:16:07.703Z,0.88
2023-01-06T04:18:33.859Z,0.80
2023-01-06T04:20:59.979Z,0.70
2023-01-06T04:23:26.108Z,0.70
2023-01-06T04:25:52.246Z,0.70
2023-01-06T04:28:18.367Z,0.70
2023-01-06T04:30:44.504Z,0.75
2023-01-06T04:33:10.629Z,0.60
2023-01-06T04:35:36.750Z,0.80
2023-01-06T04:38:02.890Z,0.93
2023-01-06T04:40:29.010Z,0.90
2023-01-06T04:42:55.354Z,0.80
2023-01-06T04:45:21.475Z,0.60
2023-01-06T04:47:47.596Z,0.70
2023-01-06T04:50:13.718Z,0.70
2023-01-06T04:52:39.870Z,0.60
2023-01-06T04:55:06.011Z,0.70
2023-01-06T04:57:32.152Z,0.47
2023-01-06T04:59:58.270Z,0.50
2023-01-06T05:02:24.394Z,0.60
2023-01-06T05:04:50.499Z,0.40
2023-01-06T05:07:16.639Z,0.50
2023-01-06T05:09:42.760Z,0.60
2023-01-06T05:12:08.895Z,0.60
2023-01-06T05:14:35.010Z,0.63
2023-01-06T05:17:01.145Z,0.50
2023-01-06T05:19:27.253Z,0.73
2023-01-06T05:21:53.370Z,0.90
2023-01-06T05:24:19.495Z,0.57
2023-01-06T05:26:45.614Z,1.65
2023-01-06T05:29:11.738Z,0.70
2023-01-06T05:31:37.912Z,0.80
2023-01-06T05:34:04.046Z,0.82
2023-01-06T05:36:30.161Z,0.80
2023-01-06T05:38:56.309Z,0.90
2023-01-06T05:41:22.438Z,0.60
2023-01-06T05:43:48.575Z,0.80
2023-01-06T05:46:14.712Z,0.57
2023-01-06T05:48:40.873Z,0.70
2023-01-06T05:51:07.039Z,0.50
2023-01-06T05:53:33.180Z,0.57
2023-01-06T05:55:59.302Z,0.80
2023-01-06T05:58:25.439Z,0.95
2023-01-06T06:00:51.574Z,0.60
2023-01-06T06:03:17.720Z,0.70
2023-01-06T06:05:43.872Z,0.90
2023-01-06T06:08:09.982Z,0.70
2023-01-06T06:10:36.105Z,0.40
2023-01-06T06:13:02.238Z,0.60
2023-01-06T06:15:28.369Z,0.60
2023-01-06T06:17:54.480Z,0.40
2023-01-06T06:20:20.628Z,0.52
2023-01-06T06:22:46.753Z,0.73
2023-01-06T06:25:12.884Z,0.80
2023-01-06T06:27:39.017Z,0.98
2023-01-06T06:30:05.157Z,0.88
2023-01-06T06:32:31.280Z,1.40
2023-01-06T06:34:57.426Z,1.30
2023-01-06T06:37:24.682Z,1.52
2023-01-06T06:39:50.811Z,1.20
2023-01-06T06:42:16.929Z,1.15
2023-01-06T06:44:43.063Z,1.30
2023-01-06T06:47:09.178Z,0.90
2023-01-06T06:49:35.291Z,1.20
2023-01-06T06:52:01.432Z,1.10
2023-01-06T06:54:27.566Z,0.93
2023-01-06T06:56:53.685Z,1.13
2023-01-06T06:59:19.818Z,0.98
2023-01-06T07:01:46.052Z,0.90
2023-01-06T07:04:12.244Z,0.90
2023-01-06T07:06:38.392Z,0.75
2023-01-06T07:09:04.497Z,0.70
2023-01-06T07:11:30.613Z,0.90
2023-01-06T07:13:56.731Z,0.82
2023-01-06T07:16:22.868Z,0.68
2023-01-06T07:18:48.994Z,0.98
2023-01-06T07:21:15.124Z,1.10
2023-01-06T07:23:41.255Z,2.35
2023-01-06T07:26:07.376Z,0.88
2023-01-06T07:28:33.494Z,1.30
2023-01-06T07:30:59.695Z,0.63
2023-01-06T07:33:25.827Z,0.77
2023-01-06T07:35:51.949Z,1.40
2023-01-06T07:38:18.078Z,0.95
2023-01-06T07:40:44.210Z,0.70
2023-01-06T07:43:10.346Z,0.70
2023-01-06T07:45:36.480Z,0.65
2023-01-06T07:48:02.657Z,0.80
2023-01-06T07:50:28.822Z,0.70
2023-01-06T07:52:55.098Z,0.70
2023-01-06T07:55:21.341Z,1.30
2023-01-06T07:57:47.467Z,0.85
2023-01-06T08:00:13.644Z,1.02
2023-01-06T08:02:39.930Z,2.15
2023-01-06T08:05:06.144Z,0.70
2023-01-06T08:07:32.353Z,1.00
2023-01-06T08:09:58.484Z,1.23
2023-01-06T08:12:24.602Z,0.70
2023-01-06T08:14:50.743Z,0.90
2023-01-06T08:17:16.860Z,0.60
2023-01-06T08:19:43.034Z,0.60
2023-01-06T08:22:09.190Z,0.60
2023-01-06T08:24:35.343Z,0.95
2023-01-06T08:27:01.455Z,0.80
2023-01-06T08:29:27.629Z,0.52
2023-01-06T08:32:02.129Z,0.70
2023-01-06T08:34:31.838Z,0.75
2023-01-06T08:36:57.974Z,0.60
2023-01-06T08:39:24.113Z,0.60
2023-01-06T08:41:50.220Z,0.35
2023-01-06T08:44:16.364Z,0.52
2023-01-06T08:46:42.501Z,0.50
2023-01-06T08:49:08.718Z,0.50
2023-01-06T08:51:34.883Z,0.40
2023-01-06T08:54:01.043Z,0.70
2023-01-06T08:56:27.161Z,0.40
2023-01-06T08:58:53.302Z,0.30
2023-01-06T09:01:19.501Z,0.50
2023-01-06T09:03:45.748Z,0.50
2023-01-06T09:06:11.874Z,0.43
2023-01-06T09:08:37.998Z,0.60
2023-01-06T09:11:04.124Z,0.50
2023-01-06T09:13:30.243Z,0.50
2023-01-06T09:15:56.430Z,0.50
2023-01-06T09:18:22.582Z,0.70
2023-01-06T09:20:48.692Z,0.40
2023-01-06T09:23:14.803Z,0.50
2023-01-06T09:25:40.923Z,0.47
2023-01-06T09:28:07.045Z,0.70
2023-01-06T09:30:33.173Z,0.50
2023-01-06T09:32:59.316Z,0.60
2023-01-06T09:35:25.435Z,0.60
2023-01-06T09:37:51.565Z,0.40
2023-01-06T09:40:17.692Z,0.40
2023-01-06T09:42:43.862Z,0.40
2023-01-06T09:45:10.045Z,0.40
2023-01-06T09:47:36.165Z,0.40
2023-01-06T09:50:02.278Z,0.50
2023-01-06T09:52:28.426Z,0.45
2023-01-06T09:54:54.537Z,0.60
2023-01-06T09:57:20.695Z,0.50
2023-01-06T09:59:46.933Z,0.50
2023-01-06T10:02:13.120Z,0.30
2023-01-06T10:04:39.249Z,0.50
2023-01-06T10:07:05.377Z,0.50
2023-01-06T10:09:31.514Z,0.30
2023-01-06T10:11:57.675Z,0.28
2023-01-06T10:14:23.816Z,0.20
2023-01-06T10:16:49.965Z,0.30
2023-01-06T10:19:16.076Z,0.20
2023-01-06T10:21:42.223Z,0.20
2023-01-06T10:24:08.335Z,0.30
2023-01-06T10:26:34.455Z,0.28
2023-01-06T10:29:00.564Z,0.30
2023-01-06T10:31:26.773Z,0.30
2023-01-06T10:33:52.902Z,0.22
2023-01-06T10:36:19.017Z,0.30
2023-01-06T10:38:45.142Z,0.30
2023-01-06T10:41:11.258Z,0.40
2023-01-06T10:43:37.390Z,0.50
2023-01-06T10:46:03.509Z,0.40
2023-01-06T10:48:29.636Z,0.50
2023-01-06T10:50:57.167Z,0.40
2023-01-06T10:53:24.117Z,0.50
2023-01-06T10:55:50.269Z,0.40
2023-01-06T10:58:16.401Z,0.40
2023-01-06T11:00:42.567Z,0.45
2023-01-06T11:03:31.374Z,0.40
2023-01-06T11:05:54.868Z,0.32
2023-01-06T11:08:21.004Z,0.45
2023-01-06T11:10:47.135Z,0.70
2023-01-06T11:13:13.299Z,0.63
2023-01-06T11:15:39.427Z,0.60
2023-01-06T11:18:05.551Z,0.70
2023-01-06T11:20:31.676Z,0.55
2023-01-06T11:22:57.827Z,0.50
2023-01-06T11:25:23.938Z,0.45
2023-01-06T11:27:50.142Z,0.60
2023-01-06T11:30:16.317Z,0.65
2023-01-06T11:32:42.415Z,0.60
2023-01-06T11:35:08.567Z,0.50
2023-01-06T11:37:34.712Z,0.60
2023-01-06T11:40:10.383Z,0.60
2023-01-06T11:42:37.054Z,0.65
2023-01-06T11:45:03.232Z,0.73
2023-01-06T11:47:29.343Z,1.10
2023-01-06T11:49:55.485Z,0.90
2023-01-06T11:52:21.637Z,0.98
2023-01-06T11:54:47.818Z,1.00
2023-01-06T11:57:13.923Z,1.02
2023-01-06T11:59:40.090Z,1.00
2023-01-06T12:02:06.239Z,1.48
2023-01-06T12:04:32.419Z,0.80
2023-01-06T12:06:58.552Z,1.10
2023-01-06T12:09:24.714Z,1.00
2023-01-06T12:11:50.846Z,1.05
2023-01-06T12:14:27.900Z,1.02
2023-01-06T12:16:54.955Z,0.90
2023-01-06T12:19:21.152Z,0.77
2023-01-06T12:21:47.361Z,0.70
2023-01-06T12:24:13.469Z,0.85
2023-01-06T12:26:39.593Z,0.90
2023-01-06T12:29:05.706Z,0.85
2023-01-06T12:31:31.827Z,1.17
2023-01-06T12:33:57.941Z,1.40
2023-01-06T12:36:24.078Z,1.27
2023-01-06T12:38:50.185Z,1.33
2023-01-06T12:41:16.317Z,1.23
2023-01-06T12:43:42.443Z,1.30
2023-01-06T12:46:08.689Z,1.00
2023-01-06T12:48:34.836Z,1.10
2023-01-06T12:51:00.977Z,1.23
2023-01-06T12:53:27.083Z,1.30
2023-01-06T12:55:53.220Z,1.27
2023-01-06T12:58:19.338Z,1.17
2023-01-06T13:00:45.450Z,0.85
2023-01-06T13:03:11.546Z,0.88
2023-01-06T13:05:37.690Z,1.00
2023-01-06T13:08:03.806Z,0.70
2023-01-06T13:10:29.921Z,0.80
2023-01-06T13:12:56.064Z,0.80
2023-01-06T13:15:22.186Z,0.90
2023-01-06T13:17:48.395Z,0.60
2023-01-06T13:20:14.517Z,0.60
2023-01-06T13:22:40.668Z,0.50
2023-01-06T13:25:06.770Z,0.50
2023-01-06T13:27:32.920Z,0.65
2023-01-06T13:29:59.074Z,0.75
2023-01-06T13:32:25.238Z,0.52
2023-01-06T13:34:51.335Z,0.60
2023-01-06T13:37:17.470Z,0.50
2023-01-06T13:39:43.598Z,0.50
2023-01-06T13:42:09.719Z,0.40
2023-01-06T13:44:35.848Z,0.30
2023-01-06T13:47:02.614Z,0.60
2023-01-06T13:49:29.239Z,0.30
2023-01-06T13:51:55.385Z,0.40
2023-01-06T13:54:21.526Z,0.40
2023-01-06T13:56:47.632Z,0.30
2023-01-06T13:59:13.765Z,0.38
2023-01-06T14:01:39.964Z,0.45
2023-01-06T14:04:06.322Z,0.30
2023-01-06T14:06:32.424Z,0.30
2023-01-06T14:08:58.558Z,0.30
2023-01-06T14:11:24.706Z,0.32
2023-01-06T14:13:50.909Z,0.40
2023-01-06T14:16:17.267Z,0.50
2023-01-06T14:18:43.475Z,0.40
2023-01-06T14:21:09.606Z,0.40
2023-01-06T14:23:35.721Z,0.50
2023-01-06T14:26:01.856Z,0.30
2023-01-06T14:28:27.975Z,0.30
2023-01-06T14:30:54.212Z,0.20
2023-01-06T14:33:20.370Z,0.30
2023-01-06T14:35:46.520Z,0.47
2023-01-06T14:38:12.648Z,0.20
2023-01-06T14:40:38.831Z,0.30
2023-01-06T14:43:04.938Z,0.30
2023-01-06T14:45:31.093Z,0.40
2023-01-06T14:47:57.220Z,0.50
2023-01-06T14:50:24.843Z,0.40
2023-01-06T14:52:51.053Z,0.40
2023-01-06T14:55:17.226Z,0.30
2023-01-06T14:57:43.349Z,0.30
2023-01-06T15:00:09.497Z,0.60
2023-01-06T15:02:35.975Z,0.28
2023-01-06T15:05:02.255Z,0.30
2023-01-06T15:07:28.453Z,0.45
2023-01-06T15:09:54.585Z,0.30
2023-01-06T15:12:20.725Z,0.43
2023-01-06T15:14:46.940Z,0.40
2023-01-06T15:17:13.100Z,0.60
2023-01-06T15:19:39.360Z,0.60
2023-01-06T15:22:05.511Z,0.47
2023-01-06T15:24:31.634Z,0.55
2023-01-06T15:26:57.810Z,0.50
2023-01-06T15:29:23.912Z,0.60
2023-01-06T15:31:50.050Z,0.60
2023-01-06T15:34:16.172Z,0.73
2023-01-06T15:36:42.302Z,0.60
2023-01-06T15:39:08.414Z,0.80
2023-01-06T15:41:34.569Z,0.60
2023-01-06T15:44:00.687Z,0.52
2023-01-06T15:46:27.048Z,0.52
2023-01-06T15:48:53.372Z,0.90
2023-01-06T15:51:19.487Z,0.50
2023-01-06T15:53:45.645Z,0.57
2023-01-06T15:56:11.876Z,0.43
2023-01-06T15:58:38.214Z,0.50
2023-01-06T16:01:04.334Z,0.40
2023-01-06T16:03:30.486Z,0.40
2023-01-06T16:06:10.272Z,0.32
2023-01-06T16:08:36.860Z,0.40
2023-01-06T16:11:03.016Z,0.30
2023-01-06T16:13:29.211Z,0.30
2023-01-06T16:15:55.358Z,0.50
2023-01-06T16:18:21.560Z,0.30
2023-01-06T16:20:47.676Z,0.30
2023-01-06T16:23:13.804Z,0.50
2023-01-06T16:25:39.955Z,0.40
2023-01-06T16:28:06.091Z,0.50
2023-01-06T16:30:32.243Z,0.50
2023-01-06T16:32:58.384Z,0.40
2023-01-06T16:35:24.537Z,0.47
2023-01-06T16:37:50.667Z,0.40
2023-01-06T16:40:16.846Z,0.60
2023-01-06T16:42:42.975Z,0.43
2023-01-06T16:45:09.103Z,0.50
2023-01-06T16:47:35.224Z,0.70
2023-01-06T16:50:01.412Z,0.70
2023-01-06T16:52:27.534Z,0.60
2023-01-06T16:54:53.800Z,0.60
2023-01-06T16:57:19.928Z,0.70
2023-01-06T16:59:46.060Z,0.80
2023-01-06T17:02:13.184Z,0.60
2023-01-06T17:04:39.485Z,0.80
2023-01-06T17:07:05.628Z,0.63
2023-01-06T17:09:31.765Z,0.73
2023-01-06T17:11:57.879Z,0.70
2023-01-06T17:14:23.998Z,0.70
2023-01-06T17:16:50.145Z,0.60
2023-01-06T17:19:16.258Z,0.68
2023-01-06T17:21:42.399Z,0.60
2023-01-06T17:24:08.528Z,0.85
2023-01-06T17:26:34.707Z,0.60
2023-01-06T17:29:00.841Z,0.70
2023-01-06T17:31:27.055Z,1.10
2023-01-06T17:33:53.250Z,0.85
2023-01-06T17:36:19.404Z,0.90
2023-01-06T17:38:45.564Z,0.80
2023-01-06T17:41:11.688Z,0.90
2023-01-06T17:43:37.840Z,0.75
2023-01-06T17:46:04.051Z,0.60
2023-01-06T17:48:30.155Z,0.70
2023-01-06T17:50:56.285Z,0.77
2023-01-06T17:53:22.437Z,0.82
2023-01-06T17:55:48.537Z,0.70
2023-01-06T17:58:14.736Z,0.80
2023-01-06T18:00:40.881Z,0.90
2023-01-06T18:03:07.101Z,0.60
2023-01-06T18:05:33.388Z,1.00
2023-01-06T18:07:59.586Z,1.00
2023-01-06T18:10:25.811Z,1.00
2023-01-06T18:12:51.950Z,1.50
2023-01-06T18:15:18.099Z,1.77
2023-01-06T18:17:44.241Z,1.55
2023-01-06T18:20:10.344Z,1.58
2023-01-06T18:22:36.464Z,1.10
2023-01-06T18:25:02.688Z,1.70
2023-01-06T18:27:28.846Z,1.63
2023-01-06T18:29:54.990Z,1.30
2023-01-06T18:32:21.157Z,1.45
2023-01-06T18:34:47.338Z,1.30
2023-01-06T18:37:13.474Z,1.42
2023-01-06T18:39:39.641Z,1.60
2023-01-06T18:42:06.014Z,1.75
2023-01-06T18:44:32.243Z,1.35
2023-01-06T18:46:58.352Z,1.30
2023-01-06T18:49:24.487Z,1.30
2023-01-06T18:51:50.617Z,1.08
2023-01-06T18:54:16.830Z,1.30
2023-01-06T18:56:42.965Z,1.35
2023-01-06T18:59:09.103Z,1.15
2023-01-06T19:01:35.376Z,1.00
2023-01-06T19:04:01.767Z,1.48
2023-01-06T19:06:27.918Z,1.45
2023-01-06T19:08:54.068Z,1.10
2023-01-06T19:11:20.222Z,1.30
2023-01-06T19:13:46.435Z,1.50
2023-01-06T19:16:12.625Z,1.10
2023-01-06T19:18:38.761Z,1.58
2023-01-06T19:21:04.922Z,1.33
2023-01-06T19:23:31.079Z,1.73
2023-01-06T19:25:57.238Z,1.40
2023-01-06T19:28:23.354Z,1.48
2023-01-06T19:30:49.525Z,1.80
2023-01-06T19:33:15.831Z,1.83
2023-01-06T19:35:41.999Z,1.98
2023-01-06T19:38:08.141Z,1.75
2023-01-06T19:40:34.269Z,1.83
2023-01-06T19:43:00.420Z,2.40
2023-01-06T19:45:26.591Z,2.78
2023-01-06T19:47:52.802Z,2.70
2023-01-06T19:50:18.932Z,2.00
2023-01-06T19:52:45.031Z,2.03
2023-01-06T19:55:11.257Z,2.25
2023-01-06T19:57:37.396Z,2.15
2023-01-06T20:00:03.532Z,2.17
2023-01-06T20:02:29.830Z,1.80
2023-01-06T20:04:56.079Z,1.63
2023-01-06T20:07:22.461Z,1.30
2023-01-06T20:09:48.593Z,1.30
2023-01-06T20:12:14.737Z,1.58
2023-01-06T20:14:40.909Z,1.90
2023-01-06T20:17:07.051Z,1.73
2023-01-06T20:19:33.159Z,1.95
2023-01-06T20:21:59.385Z,1.70
2023-01-06T20:24:25.524Z,1.48
2023-01-06T20:26:51.731Z,1.83
2023-01-06T20:29:17.962Z,1.33
2023-01-06T20:31:44.176Z,1.50
2023-01-06T20:34:10.305Z,1.63
2023-01-06T20:36:36.453Z,1.67
2023-01-06T20:39:02.577Z,1.70
2023-01-06T20:41:28.720Z,1.15
2023-01-06T20:43:54.824Z,1.67
2023-01-06T20:46:21.020Z,1.70
2023-01-06T20:48:47.198Z,1.70
2023-01-06T20:51:13.430Z,1.80
2023-01-06T20:53:39.561Z,1.80
2023-01-06T20:56:05.757Z,2.13
2023-01-06T20:58:31.964Z,2.17
2023-01-06T21:00:58.119Z,1.77
2023-01-06T21:03:24.279Z,1.60
2023-01-06T21:05:50.404Z,1.88
2023-01-06T21:08:16.556Z,1.77
2023-01-06T21:10:42.693Z,1.90
2023-01-06T21:13:08.882Z,1.90
2023-01-06T21:15:35.020Z,1.92
2023-01-06T21:18:01.390Z,1.70
2023-01-06T21:20:27.509Z,1.80
2023-01-06T21:22:53.682Z,1.67
2023-01-06T21:25:19.921Z,1.80
2023-01-06T21:27:46.164Z,1.75
2023-01-06T21:30:12.379Z,1.88
2023-01-06T21:32:38.718Z,1.40
2023-01-06T21:35:04.859Z,1.88
2023-01-06T21:37:30.978Z,1.65
2023-01-06T21:39:57.106Z,1.67
2023-01-06T21:42:23.250Z,1.50
2023-01-06T21:44:49.449Z,1.70
2023-01-06T21:47:15.573Z,1.20
2023-01-06T21:49:41.787Z,1.30
2023-01-06T21:52:08.042Z,1.52
2023-01-06T21:54:34.214Z,1.73
2023-01-06T21:57:00.415Z,1.73
2023-01-06T21:59:26.568Z,1.48
2023-01-06T22:01:52.772Z,1.65
2023-01-06T22:04:19.074Z,2.17
2023-01-06T22:06:45.208Z,1.88
2023-01-06T22:09:11.353Z,1.95
2023-01-06T22:11:37.602Z,1.67
2023-01-06T22:14:03.758Z,1.77
2023-01-06T22:16:29.960Z,1.45
2023-01-06T22:18:56.165Z,1.45
2023-01-06T22:21:22.337Z,1.45
2023-01-06T22:23:48.453Z,1.38
2023-01-06T22:26:14.581Z,1.60
2023-01-06T22:28:40.710Z,1.60
2023-01-06T22:31:06.890Z,1.70
2023-01-06T22:33:33.081Z,1.40
2023-01-06T22:35:59.215Z,1.83
2023-01-06T22:38:25.353Z,1.42
2023-01-06T22:40:51.490Z,1.40
2023-01-06T22:43:17.604Z,1.58
2023-01-06T22:45:43.773Z,1.63
2023-01-06T22:48:09.874Z,1.50
2023-01-06T22:50:36.058Z,1.35
2023-01-06T22:53:02.189Z,1.70
2023-01-06T22:55:28.391Z,1.77
2023-01-06T22:57:54.545Z,1.52
2023-01-06T23:00:20.661Z,1.50
2023-01-06T23:02:46.936Z,1.98
2023-01-06T23:05:13.158Z,1.95
2023-01-06T23:07:39.326Z,1.65
2023-01-06T23:10:05.683Z,1.70
2023-01-06T23:12:31.813Z,1.65
2023-01-06T23:14:57.948Z,1.45
2023-01-06T23:17:24.117Z,1.48
2023-01-06T23:19:50.264Z,1.60
2023-01-06T23:22:16.416Z,1.90
2023-01-06T23:24:42.557Z,1.60
2023-01-06T23:27:08.851Z,1.60
2023-01-06T23:29:34.978Z,1.60
2023-01-06T23:32:01.119Z,1.52
2023-01-06T23:34:27.268Z,1.58
2023-01-06T23:36:53.489Z,1.70
2023-01-06T23:39:19.607Z,1.55
2023-01-06T23:41:45.788Z,1.98
2023-01-06T23:44:12.018Z,1.55
2023-01-06T23:46:38.267Z,1.50
2023-01-06T23:49:04.485Z,1.50
2023-01-06T23:51:30.607Z,1.67
2023-01-06T23:53:56.752Z,1.60
2023-01-06T23:56:22.877Z,1.55
2023-01-06T23:58:49.042Z,1.52
